Time;durP1;ratioP1;P1;durP2;ratioP2;P2;SDS_P1;SDS_P2;PMS_P1;PMS_P2;Temp;Humidity;BMP_temperature;BMP_pressure;BME280_temperature;BME280_humidity;BME280_pressure;Samples;Min_cycle;Max_cycle;Signal;HPM_P1;HPM_P2
2023/05/03 00:00:40;;;;;;;6.35;3.13;;;;;;;;;;5072544;28;20253;-89
2023/05/03 00:03:06;;;;;;;5.25;2.97;;;;;;;;;;5054532;28;20016;-89
2023/05/03 00:05:31;;;;;;;5.77;3.40;;;;;;;;;;5054470;28;20386;-89
2023/05/03 00:07:57;;;;;;;4.55;3.03;;;;;;;;;;5072329;28;20250;-89
2023/05/03 00:10:22;;;;;;;5.82;3.13;;;;;;;;;;5071421;28;20073;-89
2023/05/03 00:12:48;;;;;;;5.47;2.58;;;;;;;;;;5072410;28;20066;-89
2023/05/03 00:15:13;;;;;;;6.97;2.77;;;;;;;;;;5054409;28;20013;-89
2023/05/03 00:17:38;;;;;;;3.90;2.20;;;;;;;;;;5072271;28;20307;-90
2023/05/03 00:20:04;;;;;;;6.25;2.70;;;;;;;;;;5071077;28;20025;-89
2023/05/03 00:22:29;;;;;;;6.55;2.90;;;;;;;;;;5072127;28;20028;-90
2023/05/03 00:24:55;;;;;;;5.88;2.75;;;;;;;;;;5071088;28;20031;-90
2023/05/03 00:27:20;;;;;;;4.90;2.40;;;;;;;;;;5072204;28;20024;-90
2023/05/03 00:29:46;;;;;;;4.30;2.13;;;;;;;;;;5072216;28;20024;-90
2023/05/03 00:32:11;;;;;;;5.05;2.35;;;;;;;;;;5072170;28;20061;-90
2023/05/03 00:34:37;;;;;;;3.67;2.15;;;;;;;;;;5071868;28;20104;-90
2023/05/03 00:37:02;;;;;;;3.13;1.90;;;;;;;;;;5072083;28;20016;-90
2023/05/03 00:39:30;;;;;;;4.17;2.33;;;;;;;;;;5071502;28;20025;-89
2023/05/03 00:41:58;;;;;;;6.57;2.63;;;;;;;;;;5051952;28;20254;-89
2023/05/03 00:44:23;;;;;;;4.30;1.98;;;;;;;;;;5051784;28;20497;-90
2023/05/03 00:46:49;;;;;;;9.05;2.00;;;;;;;;;;5051267;28;20025;-90
2023/05/03 00:49:15;;;;;;;7.90;2.90;;;;;;;;;;5051979;28;20426;-90
2023/05/03 00:51:40;;;;;;;4.65;2.33;;;;;;;;;;5051889;28;20051;-90
2023/05/03 00:54:06;;;;;;;6.57;2.10;;;;;;;;;;5051761;28;20257;-89
2023/05/03 00:56:31;;;;;;;7.10;2.50;;;;;;;;;;5070396;28;20025;-89
2023/05/03 00:58:57;;;;;;;5.82;2.13;;;;;;;;;;5071750;28;20020;-89
2023/05/03 01:01:22;;;;;;;5.57;2.10;;;;;;;;;;5071867;28;20386;-89
2023/05/03 01:03:49;;;;;;;3.90;2.22;;;;;;;;;;5071783;28;20347;-90
2023/05/03 01:06:23;;;;;;;4.63;2.00;;;;;;;;;;5071902;28;20051;-90
2023/05/03 01:08:48;;;;;;;5.38;1.95;;;;;;;;;;5071654;28;20066;-89
2023/05/03 01:11:19;;;;;;;4.80;1.83;;;;;;;;;;5070685;28;20579;-89
2023/05/03 01:13:54;;;;;;;7.13;2.67;;;;;;;;;;5072244;28;20025;-90
2023/05/03 01:16:28;;;;;;;4.10;1.95;;;;;;;;;;5071642;28;20482;-90
2023/05/03 01:18:53;;;;;;;2.80;1.80;;;;;;;;;;5071405;28;20021;-90
2023/05/03 01:21:21;;;;;;;4.30;1.75;;;;;;;;;;5071866;28;20025;-90
2023/05/03 01:24:02;;;;;;;5.47;1.77;;;;;;;;;;5070767;28;20086;-89
2023/05/03 01:26:27;;;;;;;4.65;1.52;;;;;;;;;;5071483;28;20013;-89
2023/05/03 01:28:53;;;;;;;2.47;1.40;;;;;;;;;;5053426;28;20047;-90
2023/05/03 01:31:27;;;;;;;2.40;1.63;;;;;;;;;;5071425;28;20091;-89
2023/05/03 01:33:57;;;;;;;3.80;1.80;;;;;;;;;;5071488;28;20012;-89
2023/05/03 01:36:25;;;;;;;2.63;1.58;;;;;;;;;;5071511;28;20021;-89
2023/05/03 01:38:51;;;;;;;5.45;2.05;;;;;;;;;;5052447;28;20021;-89
2023/05/03 01:41:17;;;;;;;5.25;1.65;;;;;;;;;;5071341;28;20390;-89
2023/05/03 01:43:42;;;;;;;3.03;1.55;;;;;;;;;;5071273;28;20047;-88
2023/05/03 01:46:07;;;;;;;3.47;1.80;;;;;;;;;;5071222;28;20522;-89
2023/05/03 01:48:33;;;;;;;4.13;1.98;;;;;;;;;;5071230;28;20099;-89
2023/05/03 01:50:58;;;;;;;4.45;1.52;;;;;;;;;;5071372;28;20017;-89
2023/05/03 01:53:23;;;;;;;3.13;1.50;;;;;;;;;;5070107;28;20013;-89
2023/05/03 01:55:49;;;;;;;3.63;1.60;;;;;;;;;;5068995;28;20016;-89
2023/05/03 01:58:14;;;;;;;5.85;1.73;;;;;;;;;;5073375;28;20253;-89
2023/05/03 02:00:40;;;;;;;2.90;1.40;;;;;;;;;;5074950;28;20054;-89
2023/05/03 02:03:05;;;;;;;7.28;1.65;;;;;;;;;;5074728;28;20048;-89
2023/05/03 02:05:30;;;;;;;2.78;1.30;;;;;;;;;;5074651;28;20064;-89
2023/05/03 02:07:55;;;;;;;2.85;1.30;;;;;;;;;;5074772;28;20047;-89
2023/05/03 02:10:21;;;;;;;3.73;1.40;;;;;;;;;;5073860;28;20111;-89
2023/05/03 02:12:46;;;;;;;3.73;1.47;;;;;;;;;;5056691;28;20296;-89
2023/05/03 02:15:11;;;;;;;3.63;1.52;;;;;;;;;;5074655;28;20272;-89
2023/05/03 02:17:37;;;;;;;4.40;1.27;;;;;;;;;;5074474;28;20017;-89
2023/05/03 02:20:04;;;;;;;5.50;1.88;;;;;;;;;;5074666;28;20087;-89
2023/05/03 02:22:30;;;;;;;3.72;1.52;;;;;;;;;;5074536;28;20557;-89
2023/05/03 02:24:55;;;;;;;2.80;0.95;;;;;;;;;;5073253;28;20143;-89
2023/05/03 02:27:21;;;;;;;1.83;1.08;;;;;;;;;;5074492;28;20095;-89
2023/05/03 02:29:46;;;;;;;3.03;1.47;;;;;;;;;;5074376;28;20031;-89
2023/05/03 02:32:11;;;;;;;1.60;1.00;;;;;;;;;;5056461;28;20323;-89
2023/05/03 02:34:37;;;;;;;2.47;1.07;;;;;;;;;;5074459;28;20458;-88
2023/05/03 02:37:03;;;;;;;2.13;1.20;;;;;;;;;;5073058;28;20769;-88
2023/05/03 02:39:28;;;;;;;3.35;0.98;;;;;;;;;;5074107;28;20021;-88
2023/05/03 02:41:53;;;;;;;2.77;1.07;;;;;;;;;;5056289;28;20028;-88
2023/05/03 02:44:18;;;;;;;5.15;1.58;;;;;;;;;;5074042;28;20285;-88
2023/05/03 02:46:44;;;;;;;2.30;1.07;;;;;;;;;;5074177;28;20024;-88
2023/05/03 02:49:09;;;;;;;2.45;0.98;;;;;;;;;;5073929;28;20256;-88
2023/05/03 02:51:35;;;;;;;3.78;1.27;;;;;;;;;;5071584;28;20078;-88
2023/05/03 02:54:00;;;;;;;2.88;0.90;;;;;;;;;;5053711;28;20112;-88
2023/05/03 02:56:26;;;;;;;4.68;1.10;;;;;;;;;;5053890;28;20045;-88
2023/05/03 02:58:51;;;;;;;2.03;1.10;;;;;;;;;;5053602;28;20017;-88
2023/05/03 03:01:17;;;;;;;3.08;1.10;;;;;;;;;;5053780;28;20013;-88
2023/05/03 03:03:42;;;;;;;2.25;0.88;;;;;;;;;;5053692;28;20031;-88
2023/05/03 03:06:07;;;;;;;2.20;0.90;;;;;;;;;;5065356;28;20111;-88
2023/05/03 03:08:32;;;;;;;2.13;0.90;;;;;;;;;;5073324;28;20017;-88
2023/05/03 03:10:58;;;;;;;2.87;1.10;;;;;;;;;;5073264;28;20275;-88
2023/05/03 03:13:23;;;;;;;3.37;0.90;;;;;;;;;;5073705;28;20611;-88
2023/05/03 03:15:48;;;;;;;3.75;1.00;;;;;;;;;;5073537;28;20599;-88
2023/05/03 03:18:13;;;;;;;1.67;1.00;;;;;;;;;;5073488;28;20029;-88
2023/05/03 03:20:38;;;;;;;3.30;0.98;;;;;;;;;;5072382;28;20012;-89
2023/05/03 03:23:04;;;;;;;2.30;0.90;;;;;;;;;;5073203;28;20031;-89
2023/05/03 03:25:29;;;;;;;3.40;1.03;;;;;;;;;;5073472;28;20592;-88
2023/05/03 03:27:54;;;;;;;1.92;0.90;;;;;;;;;;5073279;28;20261;-89
2023/05/03 03:30:19;;;;;;;2.15;0.90;;;;;;;;;;5073275;28;20489;-88
2023/05/03 03:32:45;;;;;;;1.80;0.93;;;;;;;;;;5073373;28;20074;-88
2023/05/03 03:35:10;;;;;;;1.17;0.77;;;;;;;;;;5071868;28;20273;-89
2023/05/03 03:37:36;;;;;;;1.90;1.15;;;;;;;;;;5071996;28;20028;-88
2023/05/03 03:40:01;;;;;;;4.38;0.82;;;;;;;;;;5073030;28;20012;-87
2023/05/03 03:42:26;;;;;;;3.03;0.82;;;;;;;;;;5072866;28;20040;-88
2023/05/03 03:44:52;;;;;;;2.17;1.00;;;;;;;;;;5072825;28;20067;-88
2023/05/03 03:47:17;;;;;;;1.60;0.65;;;;;;;;;;5072633;28;20555;-88
2023/05/03 03:49:43;;;;;;;2.33;0.67;;;;;;;;;;5071810;28;20073;-88
2023/05/03 03:52:08;;;;;;;2.83;0.98;;;;;;;;;;5072724;28;20261;-88
2023/05/03 03:54:34;;;;;;;2.27;0.90;;;;;;;;;;5072855;28;20020;-88
2023/05/03 03:57:01;;;;;;;3.28;0.98;;;;;;;;;;5072660;28;20276;-88
2023/05/03 03:59:26;;;;;;;1.05;0.80;;;;;;;;;;5072773;28;20036;-88
2023/05/03 04:01:52;;;;;;;1.95;0.95;;;;;;;;;;5072590;28;20067;-88
2023/05/03 04:04:17;;;;;;;2.07;0.93;;;;;;;;;;5071394;28;20029;-88
2023/05/03 04:06:42;;;;;;;2.25;0.80;;;;;;;;;;5072435;28;20256;-88
2023/05/03 04:09:08;;;;;;;2.00;0.70;;;;;;;;;;5072947;28;20362;-88
2023/05/03 04:11:33;;;;;;;2.03;1.05;;;;;;;;;;5072807;28;20303;-88
2023/05/03 04:13:59;;;;;;;2.97;0.82;;;;;;;;;;5072432;28;20013;-88
2023/05/03 04:16:24;;;;;;;1.65;0.90;;;;;;;;;;5072424;28;20374;-88
2023/05/03 04:18:49;;;;;;;2.80;0.80;;;;;;;;;;5071194;28;20025;-88
2023/05/03 04:21:15;;;;;;;1.15;0.90;;;;;;;;;;5071150;28;20311;-88
2023/05/03 04:23:40;;;;;;;1.63;0.90;;;;;;;;;;5054158;28;20029;-88
2023/05/03 04:26:06;;;;;;;0.85;0.57;;;;;;;;;;5072131;28;20320;-88
2023/05/03 04:28:32;;;;;;;1.30;0.90;;;;;;;;;;5071941;28;20021;-88
2023/05/03 04:30:57;;;;;;;1.10;0.98;;;;;;;;;;5072438;28;20167;-88
2023/05/03 04:33:22;;;;;;;1.73;0.85;;;;;;;;;;5072174;28;20020;-88
2023/05/03 04:35:49;;;;;;;1.13;0.80;;;;;;;;;;5071089;28;20016;-88
2023/05/03 04:38:15;;;;;;;3.63;0.70;;;;;;;;;;5071819;28;20020;-89
2023/05/03 04:40:40;;;;;;;1.73;0.98;;;;;;;;;;5072003;28;20386;-88
2023/05/03 04:43:05;;;;;;;1.03;0.67;;;;;;;;;;5071822;28;20028;-88
2023/05/03 04:45:30;;;;;;;1.75;0.70;;;;;;;;;;5072090;28;20261;-89
2023/05/03 04:47:56;;;;;;;1.23;0.80;;;;;;;;;;5072076;28;20031;-88
2023/05/03 04:50:21;;;;;;;1.60;1.00;;;;;;;;;;5069175;28;20428;-88
2023/05/03 04:52:46;;;;;;;4.03;1.03;;;;;;;;;;5071338;28;20666;-89
2023/05/03 04:55:12;;;;;;;2.55;0.60;;;;;;;;;;5071907;28;20794;-85
2023/05/03 04:57:38;;;;;;;5.38;0.73;;;;;;;;;;5072210;28;20486;-89
2023/05/03 05:00:06;;;;;;;1.77;0.83;;;;;;;;;;5071874;28;20082;-88
2023/05/03 05:02:31;;;;;;;1.10;0.60;;;;;;;;;;5053983;28;20349;-87
2023/05/03 05:04:56;;;;;;;1.30;1.00;;;;;;;;;;5070448;28;20127;-87
2023/05/03 05:07:22;;;;;;;5.03;0.77;;;;;;;;;;5070637;28;20276;-91
2023/05/03 05:09:47;;;;;;;2.37;1.30;;;;;;;;;;5071777;28;20024;-86
2023/05/03 05:12:12;;;;;;;1.73;0.90;;;;;;;;;;5071644;28;20261;-87
2023/05/03 05:14:37;;;;;;;5.93;0.87;;;;;;;;;;5071597;28;20269;-88
2023/05/03 05:17:02;;;;;;;3.93;1.10;;;;;;;;;;5071557;28;20257;-89
2023/05/03 05:19:28;;;;;;;2.95;1.10;;;;;;;;;;5071709;28;20258;-88
2023/05/03 05:21:53;;;;;;;11.97;1.00;;;;;;;;;;5070556;28;20272;-87
2023/05/03 05:24:18;;;;;;;3.33;1.10;;;;;;;;;;5053344;28;20346;-91
2023/05/03 05:26:43;;;;;;;8.47;1.40;;;;;;;;;;5053360;28;20252;-90
2023/05/03 05:29:09;;;;;;;15.43;1.40;;;;;;;;;;5071758;28;20261;-89
2023/05/03 05:31:35;;;;;;;7.13;1.30;;;;;;;;;;5071713;28;20024;-88
2023/05/03 05:34:00;;;;;;;3.60;1.20;;;;;;;;;;5075454;28;20036;-88
2023/05/03 05:36:26;;;;;;;3.47;1.00;;;;;;;;;;5074590;28;20474;-88
2023/05/03 05:38:51;;;;;;;5.22;0.95;;;;;;;;;;5075077;28;20013;-88
2023/05/03 05:41:16;;;;;;;4.32;1.08;;;;;;;;;;5075085;28;20028;-88
2023/05/03 05:43:41;;;;;;;5.25;1.15;;;;;;;;;;5075106;28;20020;-88
2023/05/03 05:46:07;;;;;;;2.37;0.90;;;;;;;;;;5075091;28;20037;-88
2023/05/03 05:48:32;;;;;;;1.92;0.93;;;;;;;;;;5075306;28;20253;-88
2023/05/03 05:50:57;;;;;;;3.35;1.38;;;;;;;;;;5073917;28;20087;-88
2023/05/03 05:53:23;;;;;;;2.83;0.93;;;;;;;;;;5075060;28;20024;-88
2023/05/03 05:55:48;;;;;;;2.00;0.80;;;;;;;;;;5075039;28;20265;-88
2023/05/03 05:58:14;;;;;;;2.35;1.08;;;;;;;;;;5074822;28;20039;-88
2023/05/03 06:00:39;;;;;;;3.08;0.90;;;;;;;;;;5074650;28;20023;-88
2023/05/03 06:03:05;;;;;;;2.25;0.85;;;;;;;;;;5074921;28;20102;-88
2023/05/03 06:05:30;;;;;;;2.15;0.90;;;;;;;;;;5073789;28;20464;-88
2023/05/03 06:07:55;;;;;;;1.93;0.80;;;;;;;;;;5073761;28;20074;-88
2023/05/03 06:10:20;;;;;;;1.77;0.80;;;;;;;;;;5074442;28;20265;-88
2023/05/03 06:12:45;;;;;;;4.40;0.82;;;;;;;;;;5074467;28;20053;-88
2023/05/03 06:15:11;;;;;;;3.13;0.60;;;;;;;;;;5074773;28;20485;-88
2023/05/03 06:17:36;;;;;;;5.53;1.27;;;;;;;;;;5074787;28;20280;-88
2023/05/03 06:20:03;;;;;;;3.70;1.15;;;;;;;;;;5073773;28;20466;-89
2023/05/03 06:22:28;;;;;;;1.50;0.80;;;;;;;;;;5074462;28;20020;-88
2023/05/03 06:24:54;;;;;;;3.07;1.03;;;;;;;;;;5074356;28;20032;-88
2023/05/03 06:27:19;;;;;;;2.60;0.95;;;;;;;;;;5074226;28;20249;-88
2023/05/03 06:29:45;;;;;;;3.60;0.80;;;;;;;;;;5074416;28;20023;-88
2023/05/03 06:32:10;;;;;;;4.22;1.17;;;;;;;;;;5074384;28;20012;-88
2023/05/03 06:34:36;;;;;;;2.05;0.70;;;;;;;;;;5073931;28;20024;-88
2023/05/03 06:37:01;;;;;;;2.30;0.77;;;;;;;;;;5073825;28;20043;-88
2023/05/03 06:39:27;;;;;;;3.45;0.90;;;;;;;;;;5074063;28;20100;-89
2023/05/03 06:41:52;;;;;;;3.35;1.02;;;;;;;;;;5074012;28;20097;-88
2023/05/03 06:44:17;;;;;;;1.35;0.70;;;;;;;;;;5073212;28;20078;-88
2023/05/03 06:46:43;;;;;;;4.10;1.20;;;;;;;;;;5074195;28;20394;-88
2023/05/03 06:49:08;;;;;;;2.90;0.90;;;;;;;;;;5074261;28;20727;-88
2023/05/03 06:51:33;;;;;;;2.75;0.73;;;;;;;;;;5053716;28;20044;-88
2023/05/03 06:54:05;;;;;;;2.17;0.67;;;;;;;;;;5053941;28;20467;-88
2023/05/03 06:56:30;;;;;;;2.83;0.90;;;;;;;;;;5054333;28;20254;-88
2023/05/03 06:58:55;;;;;;;1.83;0.70;;;;;;;;;;5053714;28;20082;-88
2023/05/03 07:01:22;;;;;;;2.27;0.77;;;;;;;;;;5053825;28;20246;-88
2023/05/03 07:03:47;;;;;;;0.93;0.90;;;;;;;;;;5053589;28;20286;-88
2023/05/03 07:06:12;;;;;;;1.53;0.90;;;;;;;;;;5070385;28;20065;-88
2023/05/03 07:08:38;;;;;;;1.95;0.68;;;;;;;;;;5072127;28;20378;-88
2023/05/03 07:11:03;;;;;;;2.35;0.90;;;;;;;;;;5055479;28;20023;-88
2023/05/03 07:13:28;;;;;;;3.20;0.90;;;;;;;;;;5073780;28;20017;-88
2023/05/03 07:15:54;;;;;;;3.63;0.82;;;;;;;;;;5073548;28;20020;-89
2023/05/03 07:18:19;;;;;;;2.50;0.88;;;;;;;;;;5071879;28;20032;-89
2023/05/03 07:20:45;;;;;;;1.35;0.90;;;;;;;;;;5071974;28;20552;-88
2023/05/03 07:23:10;;;;;;;1.17;0.85;;;;;;;;;;5073455;28;20012;-88
2023/05/03 07:25:38;;;;;;;1.45;0.90;;;;;;;;;;5073468;28;20028;-88
2023/05/03 07:28:03;;;;;;;2.38;0.90;;;;;;;;;;5073154;28;20100;-88
2023/05/03 07:30:28;;;;;;;3.30;0.88;;;;;;;;;;5073118;28;20115;-89
2023/05/03 07:32:54;;;;;;;3.03;0.80;;;;;;;;;;5073059;28;20013;-89
2023/05/03 07:35:19;;;;;;;3.72;1.00;;;;;;;;;;5071907;28;20024;-87
2023/05/03 07:37:44;;;;;;;1.63;0.85;;;;;;;;;;5070236;28;20016;-89
2023/05/03 07:40:11;;;;;;;1.27;0.75;;;;;;;;;;5066681;28;20055;-90
2023/05/03 07:42:36;;;;;;;1.83;0.70;;;;;;;;;;5073448;28;20029;-87
2023/05/03 07:45:01;;;;;;;2.10;0.68;;;;;;;;;;5072018;28;20051;-89
2023/05/03 07:47:27;;;;;;;3.92;0.95;;;;;;;;;;5071929;28;20020;-86
2023/05/03 07:49:52;;;;;;;3.30;0.77;;;;;;;;;;5072595;28;20024;-86
2023/05/03 07:52:18;;;;;;;2.55;0.98;;;;;;;;;;5072549;28;20322;-87
2023/05/03 07:54:44;;;;;;;1.63;0.70;;;;;;;;;;5072251;28;20547;-86
2023/05/03 07:57:10;;;;;;;1.25;0.55;;;;;;;;;;5072914;28;20046;-87
2023/05/03 07:59:35;;;;;;;2.72;0.82;;;;;;;;;;5080774;28;20035;-87
2023/05/03 08:02:00;;;;;;;3.95;0.80;;;;;;;;;;5075735;28;20031;-87
2023/05/03 08:04:26;;;;;;;2.30;0.83;;;;;;;;;;5072461;28;20036;-86
2023/05/03 08:06:51;;;;;;;2.05;0.70;;;;;;;;;;5078780;28;20607;-87
2023/05/03 08:09:17;;;;;;;1.73;0.80;;;;;;;;;;5091669;28;20020;-86
2023/05/03 08:11:42;;;;;;;1.35;0.52;;;;;;;;;;5091862;28;20022;-87
2023/05/03 08:14:08;;;;;;;2.10;0.65;;;;;;;;;;5091797;28;20433;-87
2023/05/03 08:16:33;;;;;;;2.10;0.73;;;;;;;;;;5082669;28;20020;-87
2023/05/03 08:18:58;;;;;;;3.65;0.60;;;;;;;;;;5072078;28;20021;-87
2023/05/03 08:21:24;;;;;;;0.85;0.50;;;;;;;;;;5071414;28;20013;-86
2023/05/03 08:23:50;;;;;;;1.48;0.55;;;;;;;;;;5071094;28;20103;-86
2023/05/03 08:26:16;;;;;;;0.87;0.63;;;;;;;;;;5071416;28;20115;-87
2023/05/03 08:28:41;;;;;;;2.63;0.98;;;;;;;;;;5053168;28;20324;-86
2023/05/03 08:31:06;;;;;;;0.88;0.60;;;;;;;;;;5071244;28;20482;-86
2023/05/03 08:33:32;;;;;;;3.00;0.90;;;;;;;;;;5070431;28;20077;-86
2023/05/03 08:35:57;;;;;;;1.52;0.63;;;;;;;;;;5053336;28;20021;-87
2023/05/03 08:38:22;;;;;;;2.65;0.70;;;;;;;;;;5070881;28;20016;-88
2023/05/03 08:40:49;;;;;;;1.45;0.60;;;;;;;;;;5070872;28;20146;-85
2023/05/03 08:43:17;;;;;;;1.45;0.50;;;;;;;;;;5070779;28;20077;-87
2023/05/03 08:45:42;;;;;;;0.85;0.38;;;;;;;;;;5070798;28;20040;-88
2023/05/03 08:48:07;;;;;;;0.50;0.40;;;;;;;;;;5070623;28;20024;-88
2023/05/03 08:50:40;;;;;;;13.67;3.13;;;;;;;;;;5068997;28;20277;-84
2023/05/03 08:53:06;;;;;;;1.70;0.60;;;;;;;;;;5076161;28;20348;-82
2023/05/03 08:55:31;;;;;;;0.95;0.30;;;;;;;;;;5070925;28;20185;-82
2023/05/03 08:57:59;;;;;;;1.97;0.50;;;;;;;;;;5070744;28;20067;-82
2023/05/03 09:00:30;;;;;;;1.95;0.40;;;;;;;;;;5070629;28;20250;-82
2023/05/03 09:02:55;;;;;;;;;;;;;;;;;;5071380;28;20529;-83
2023/05/03 09:05:29;;;;;;;1.50;0.70;;;;;;;;;;5076200;28;20366;-83
2023/05/03 09:08:04;;;;;;;1.13;0.50;;;;;;;;;;5074615;28;20039;-85
2023/05/03 09:10:30;;;;;;;1.08;0.40;;;;;;;;;;5070813;28;20021;-84
2023/05/03 09:13:00;;;;;;;2.78;0.90;;;;;;;;;;5070681;28;20020;-83
2023/05/03 09:15:26;;;;;;;1.05;0.43;;;;;;;;;;5070818;28;20029;-83
2023/05/03 09:18:10;;;;;;;2.00;0.60;;;;;;;;;;5070611;28;20509;-83
2023/05/03 09:20:36;;;;;;;1.13;0.40;;;;;;;;;;5050706;28;20059;-83
2023/05/03 09:23:01;;;;;;;1.73;0.80;;;;;;;;;;5050511;28;20032;-84
2023/05/03 09:25:42;;;;;;;1.35;0.43;;;;;;;;;;5066191;28;20040;-84
2023/05/03 09:28:08;;;;;;;1.92;0.60;;;;;;;;;;5070594;28;20017;-84
2023/05/03 09:30:33;;;;;;;1.95;0.50;;;;;;;;;;5070712;28;20035;-85
2023/05/03 09:32:58;;;;;;;2.92;0.40;;;;;;;;;;5070518;28;20038;-84
2023/05/03 09:35:23;;;;;;;0.70;0.37;;;;;;;;;;5070334;28;20153;-86
2023/05/03 09:37:49;;;;;;;1.15;0.43;;;;;;;;;;5070388;28;20287;-85
2023/05/03 09:40:17;;;;;;;1.40;0.50;;;;;;;;;;5069146;28;20419;-84
2023/05/03 09:43:02;;;;;;;1.65;0.57;;;;;;;;;;5043495;28;20101;-83
2023/05/03 09:45:27;;;;;;;1.80;0.60;;;;;;;;;;5050856;28;20025;-83
2023/05/03 09:47:54;;;;;;;1.58;0.50;;;;;;;;;;5060827;28;20027;-84
2023/05/03 09:50:20;;;;;;;0.70;0.38;;;;;;;;;;5069790;28;20077;-86
2023/05/03 09:52:46;;;;;;;1.05;0.30;;;;;;;;;;5069691;28;20425;-86
2023/05/03 09:55:11;;;;;;;0.60;0.40;;;;;;;;;;5070357;28;20453;-82
2023/05/03 09:57:36;;;;;;;0.77;0.50;;;;;;;;;;5070884;28;20013;-81
2023/05/03 10:00:02;;;;;;;1.40;0.20;;;;;;;;;;5069782;28;20024;-82
2023/05/03 10:02:30;;;;;;;1.80;0.45;;;;;;;;;;5071113;28;20258;-81
2023/05/03 10:04:56;;;;;;;1.40;0.30;;;;;;;;;;5070920;28;20029;-82
2023/05/03 10:07:23;;;;;;;1.92;0.43;;;;;;;;;;5069596;28;20501;-83
2023/05/03 10:09:49;;;;;;;1.65;0.60;;;;;;;;;;5069980;28;20025;-81
2023/05/03 10:12:17;;;;;;;0.77;0.50;;;;;;;;;;5083271;28;20422;-83
2023/05/03 10:14:44;;;;;;;0.47;0.28;;;;;;;;;;5091137;28;20027;-83
2023/05/03 10:17:13;;;;;;;0.43;0.20;;;;;;;;;;5091052;28;20008;-83
2023/05/03 10:19:55;;;;;;;1.63;0.50;;;;;;;;;;5091038;28;20423;-83
2023/05/03 10:22:20;;;;;;;0.90;0.40;;;;;;;;;;5052815;28;20032;-83
2023/05/03 10:25:06;;;;;;;1.43;0.20;;;;;;;;;;5069856;28;20044;-83
2023/05/03 10:27:42;;;;;;;1.90;0.50;;;;;;;;;;5073109;28;20261;-83
2023/05/03 10:30:08;;;;;;;0.60;0.22;;;;;;;;;;5057133;28;20082;-82
2023/05/03 10:32:41;;;;;;;1.30;0.40;;;;;;;;;;5074195;28;20012;-84
2023/05/03 10:35:13;;;;;;;0.88;0.30;;;;;;;;;;5072354;28;20555;-82
2023/05/03 10:37:42;;;;;;;1.00;0.40;;;;;;;;;;5072708;28;20039;-82
2023/05/03 10:40:08;;;;;;;1.13;0.30;;;;;;;;;;5072786;28;20033;-82
2023/05/03 10:42:35;;;;;;;0.20;0.20;;;;;;;;;;5071861;28;20028;-82
2023/05/03 10:45:02;;;;;;;13.65;0.70;;;;;;;;;;5073928;28;20383;-81
2023/05/03 10:47:27;;;;;;;2.63;0.40;;;;;;;;;;5072348;28;20028;-81
2023/05/03 10:50:12;;;;;;;4.38;0.50;;;;;;;;;;5073417;28;20009;-81
2023/05/03 10:52:38;;;;;;;1.30;0.40;;;;;;;;;;5055852;28;20382;-81
2023/05/03 10:55:23;;;;;;;0.45;0.35;;;;;;;;;;5071650;28;20012;-84
2023/05/03 10:57:52;;;;;;;5.18;0.90;;;;;;;;;;5073583;28;20436;-83
2023/05/03 11:00:18;;;;;;;9.95;0.50;;;;;;;;;;5072002;28;20021;-84
2023/05/03 11:03:22;;;;;;;1.70;0.75;;;;;;;;;;5073135;28;20028;-83
2023/05/03 11:05:47;;;;;;;1.63;0.60;;;;;;;;;;4972843;28;20043;-83
2023/05/03 11:08:17;;;;;;;0.57;0.30;;;;;;;;;;4956343;28;20023;-83
2023/05/03 11:10:46;;;;;;;2.03;0.50;;;;;;;;;;5019735;28;20120;-82
2023/05/03 11:13:11;;;;;;;0.93;0.50;;;;;;;;;;5072944;28;20521;-83
2023/05/03 11:15:37;;;;;;;0.50;0.40;;;;;;;;;;5073527;28;20060;-83
2023/05/03 11:18:04;;;;;;;0.40;0.30;;;;;;;;;;5073077;28;20402;-82
2023/05/03 11:20:29;;;;;;;2.33;0.70;;;;;;;;;;5070256;28;20028;-83
2023/05/03 11:22:55;;;;;;;1.58;0.60;;;;;;;;;;5054928;28;20077;-83
2023/05/03 11:25:20;;;;;;;0.80;0.40;;;;;;;;;;5069878;28;20028;-82
2023/05/03 11:27:48;;;;;;;1.30;0.50;;;;;;;;;;5072882;28;20013;-82
2023/05/03 11:30:13;;;;;;;3.08;0.40;;;;;;;;;;5071654;28;20295;-82
2023/05/03 11:32:39;;;;;;;1.38;0.82;;;;;;;;;;5073051;28;20478;-82
2023/05/03 11:35:06;;;;;;;2.15;1.30;;;;;;;;;;5072359;28;20012;-85
2023/05/03 11:37:31;;;;;;;1.75;0.80;;;;;;;;;;5072252;28;20028;-83
2023/05/03 11:39:56;;;;;;;5.88;3.42;;;;;;;;;;5071858;28;20009;-83
2023/05/03 11:42:24;;;;;;;8.30;3.50;;;;;;;;;;5072401;28;20027;-82
2023/05/03 11:44:50;;;;;;;8.13;3.13;;;;;;;;;;5053463;28;20135;-83
2023/05/03 11:47:15;;;;;;;6.32;3.40;;;;;;;;;;5072547;28;20103;-82
2023/05/03 11:49:50;;;;;;;4.72;2.50;;;;;;;;;;5072875;28;20100;-82
2023/05/03 11:52:19;;;;;;;5.88;2.25;;;;;;;;;;5072754;28;20097;-83
2023/05/03 11:54:44;;;;;;;3.45;2.40;;;;;;;;;;5053909;28;20020;-83
2023/05/03 11:57:11;;;;;;;7.07;2.30;;;;;;;;;;5072375;28;20028;-83
2023/05/03 11:59:37;;;;;;;6.47;2.20;;;;;;;;;;5054566;28;20260;-81
2023/05/03 12:02:04;;;;;;;4.97;2.00;;;;;;;;;;5079251;28;20097;-83
2023/05/03 12:04:29;;;;;;;5.25;1.95;;;;;;;;;;5093101;28;20040;-83
2023/05/03 12:06:54;;;;;;;4.53;2.53;;;;;;;;;;5092551;28;20027;-84
2023/05/03 12:09:20;;;;;;;3.85;2.45;;;;;;;;;;5062660;28;20103;-83
2023/05/03 12:11:47;;;;;;;2.63;1.63;;;;;;;;;;5068939;28;20378;-82
2023/05/03 12:14:13;;;;;;;1.60;1.40;;;;;;;;;;5052747;28;20013;-82
2023/05/03 12:16:51;;;;;;;3.20;1.67;;;;;;;;;;5072957;28;20016;-82
2023/05/03 12:19:25;;;;;;;4.43;1.80;;;;;;;;;;5071697;28;20024;-82
2023/05/03 12:21:51;;;;;;;4.13;1.70;;;;;;;;;;5067293;28;20012;-83
2023/05/03 12:24:18;;;;;;;3.38;1.52;;;;;;;;;;5070395;28;20398;-85
2023/05/03 12:26:44;;;;;;;4.60;1.58;;;;;;;;;;5052695;28;20009;-85
2023/05/03 12:29:09;;;;;;;3.03;1.58;;;;;;;;;;5070647;28;20016;-85
2023/05/03 12:31:36;;;;;;;3.13;1.30;;;;;;;;;;5071087;28;20020;-86
2023/05/03 12:34:03;;;;;;;2.92;1.40;;;;;;;;;;5069224;28;20743;-89
2023/05/03 12:36:28;;;;;;;3.83;1.27;;;;;;;;;;5055930;28;20032;-85
2023/05/03 12:38:53;;;;;;;2.55;1.00;;;;;;;;;;5057005;28;20013;-85
2023/05/03 12:41:19;;;;;;;4.50;1.17;;;;;;;;;;5071596;28;20028;-85
2023/05/03 12:43:44;;;;;;;3.33;1.10;;;;;;;;;;5071121;28;20035;-85
2023/05/03 12:46:10;;;;;;;4.18;1.15;;;;;;;;;;5071627;28;20089;-85
2023/05/03 12:48:35;;;;;;;1.92;1.13;;;;;;;;;;5053173;28;20433;-85
2023/05/03 12:51:00;;;;;;;1.93;1.17;;;;;;;;;;5071648;28;20016;-87
2023/05/03 12:53:25;;;;;;;2.95;1.20;;;;;;;;;;5053669;28;20272;-87
2023/05/03 12:55:51;;;;;;;1.98;1.15;;;;;;;;;;5072005;28;20025;-85
2023/05/03 12:58:16;;;;;;;2.05;1.08;;;;;;;;;;5071339;28;20024;-85
2023/05/03 13:00:43;;;;;;;2.30;1.17;;;;;;;;;;5053181;28;20020;-85
2023/05/03 13:03:08;;;;;;;2.85;1.33;;;;;;;;;;5069985;28;20028;-85
2023/05/03 13:05:33;;;;;;;1.17;0.82;;;;;;;;;;5070497;28;20036;-85
2023/05/03 13:07:59;;;;;;;2.40;1.30;;;;;;;;;;5071407;28;20021;-85
2023/05/03 13:10:26;;;;;;;3.72;1.00;;;;;;;;;;5053136;28;20024;-82
2023/05/03 13:12:52;;;;;;;3.22;1.17;;;;;;;;;;5071433;28;20023;-82
2023/05/03 13:15:18;;;;;;;4.78;1.30;;;;;;;;;;5070772;28;20055;-83
2023/05/03 13:17:43;;;;;;;6.20;1.58;;;;;;;;;;5052506;28;20258;-82
2023/05/03 13:20:09;;;;;;;1.97;1.30;;;;;;;;;;5071272;28;20025;-85
2023/05/03 13:22:35;;;;;;;3.15;1.20;;;;;;;;;;5059260;28;20798;-83
2023/05/03 13:25:01;;;;;;;3.58;1.50;;;;;;;;;;5071169;28;20111;-84
2023/05/03 13:27:27;;;;;;;1.85;1.48;;;;;;;;;;5070716;28;20470;-84
2023/05/03 13:29:52;;;;;;;1.95;0.98;;;;;;;;;;5071390;28;20020;-83
2023/05/03 13:32:17;;;;;;;2.60;1.20;;;;;;;;;;5070818;28;20024;-82
2023/05/03 13:34:43;;;;;;;7.70;1.47;;;;;;;;;;5073845;28;20020;-84
2023/05/03 13:37:08;;;;;;;2.27;1.20;;;;;;;;;;5071174;28;20258;-81
2023/05/03 13:39:33;;;;;;;4.30;1.33;;;;;;;;;;5071111;28;20353;-81
2023/05/03 13:41:58;;;;;;;4.57;1.43;;;;;;;;;;5070953;28;20266;-81
2023/05/03 13:44:24;;;;;;;4.20;1.45;;;;;;;;;;5078410;28;20324;-82
2023/05/03 13:46:49;;;;;;;4.63;1.55;;;;;;;;;;5077303;28;20490;-81
2023/05/03 13:49:15;;;;;;;2.58;1.25;;;;;;;;;;5070679;28;20489;-81
2023/05/03 13:51:40;;;;;;;3.47;1.17;;;;;;;;;;5070882;28;20378;-82
2023/05/03 13:54:05;;;;;;;2.55;1.33;;;;;;;;;;5072220;28;20028;-82
2023/05/03 13:56:31;;;;;;;2.72;1.40;;;;;;;;;;5074468;28;20462;-83
2023/05/03 13:58:56;;;;;;;1.58;0.90;;;;;;;;;;5055807;28;20016;-83
2023/05/03 14:01:26;;;;;;;3.03;1.17;;;;;;;;;;5074751;28;20374;-85
2023/05/03 14:03:51;;;;;;;2.47;1.10;;;;;;;;;;5055722;28;20544;-84
2023/05/03 14:06:16;;;;;;;3.55;1.40;;;;;;;;;;5074653;28;20056;-83
2023/05/03 14:08:42;;;;;;;2.53;1.48;;;;;;;;;;5074627;28;20095;-83
2023/05/03 14:11:13;;;;;;;2.95;1.45;;;;;;;;;;5074555;28;20034;-83
2023/05/03 14:13:39;;;;;;;;;;;;;;;;;;5074721;28;20013;-84
2023/05/03 14:16:04;;;;;;;8.35;3.08;;;;;;;;;;5073887;28;20314;-86
2023/05/03 14:18:30;;;;;;;9.15;2.25;;;;;;;;;;5073309;28;20137;-81
2023/05/03 14:20:55;;;;;;;6.25;2.80;;;;;;;;;;5074295;28;20532;-83
2023/05/03 14:23:21;;;;;;;5.78;3.00;;;;;;;;;;5057955;28;20024;-83
2023/05/03 14:25:46;;;;;;;7.18;3.10;;;;;;;;;;5074063;28;20032;-83
2023/05/03 14:28:11;;;;;;;10.40;3.70;;;;;;;;;;5073960;28;20028;-88
2023/05/03 14:30:36;;;;;;;7.73;2.63;;;;;;;;;;5073713;28;20281;-89
2023/05/03 14:33:02;;;;;;;7.87;3.03;;;;;;;;;;5073425;28;20318;-89
2023/05/03 14:35:27;;;;;;;13.40;2.88;;;;;;;;;;5074043;28;20368;-89
2023/05/03 14:37:52;;;;;;;7.22;2.45;;;;;;;;;;5073521;28;20383;-89